Time;durP1;ratioP1;P1;durP2;ratioP2;P2;SDS_P1;SDS_P2;PMS_P1;PMS_P2;Temp;Humidity;BMP_temperature;BMP_pressure;BME280_temperature;BME280_humidity;BME280_pressure;Samples;Min_cycle;Max_cycle;Signal;HPM_P1;HPM_P2
2021/05/06 00:09:03;;;;;;;2.27;0.80;;;12.10;99.90;;;;;;4207870;28;20036;-59
2021/05/06 00:32:01;;;;;;;1.83;0.60;;;11.80;99.90;;;;;;4206502;28;20028;-60
2021/05/06 00:34:03;;;;;;;1.17;0.80;;;11.70;99.90;;;;;;4206394;28;20086;-60
2021/05/06 00:36:04;;;;;;;0.75;0.75;;;11.70;99.90;;;;;;4207052;28;20035;-62
2021/05/06 00:38:12;;;;;;;0.67;0.50;;;11.70;99.90;;;;;;4206988;28;20072;-60
2021/05/06 00:40:16;;;;;;;2.63;0.60;;;11.60;99.90;;;;;;4206472;28;20044;-60
2021/05/06 01:09:05;;;;;;;;;;;10.90;99.90;;;;;;4206802;28;20028;-65
2021/05/06 01:12:06;;;;;;;2.47;1.40;;;10.80;99.90;;;;;;4205734;28;19957;-60
2021/05/06 01:13:37;;;;;;;4.13;2.38;;;10.70;99.90;;;;;;4201153;28;20472;-60
2021/05/06 01:15:38;;;;;;;7.97;2.67;;;10.60;99.90;;;;;;4205913;28;20024;-61
2021/05/06 01:17:39;;;;;;;1.73;1.53;;;10.50;99.90;;;;;;4205984;28;20039;-61
2021/05/06 01:19:41;;;;;;;1.53;0.80;;;10.40;99.90;;;;;;4206060;28;20094;-60
2021/05/06 01:21:42;;;;;;;0.60;0.53;;;10.40;99.90;;;;;;4206227;28;20044;-61
2021/05/06 01:23:45;;;;;;;1.27;0.93;;;10.30;99.90;;;;;;4205532;28;20089;-60
2021/05/06 01:26:07;;;;;;;3.43;0.87;;;10.20;99.90;;;;;;4206189;28;20074;-62
2021/05/06 01:28:11;;;;;;;2.20;1.17;;;10.20;99.90;;;;;;4205326;28;20032;-61
2021/05/06 01:32:25;;;;;;;2.50;2.07;;;10.00;99.90;;;;;;4205153;28;20058;-66
2021/05/06 01:34:26;;;;;;;2.73;2.07;;;9.90;99.90;;;;;;4205719;28;20020;-60
2021/05/06 01:36:32;;;;;;;3.47;1.80;;;9.80;99.90;;;;;;4205985;28;20444;-61
2021/05/06 01:58:39;;;;;;;2.37;2.17;;;9.50;99.90;;;;;;4193793;28;20141;-59
2021/05/06 02:00:45;;;;;;;2.63;2.27;;;9.50;99.90;;;;;;4205117;28;20587;-60
2021/05/06 02:02:47;;;;;;;2.47;1.77;;;9.40;99.90;;;;;;4204971;28;20713;-58
2021/05/06 02:04:48;;;;;;;4.63;2.27;;;9.40;99.90;;;;;;4206092;28;20081;-60
2021/05/06 02:06:49;;;;;;;4.17;1.90;;;9.40;99.90;;;;;;4205083;28;20040;-61
2021/05/06 02:08:50;;;;;;;4.33;2.07;;;9.40;99.90;;;;;;4205424;28;20089;-59
2021/05/06 02:10:56;;;;;;;2.37;2.13;;;9.40;99.90;;;;;;4205952;28;20043;-61
2021/05/06 02:12:57;;;;;;;3.87;2.00;;;9.40;99.90;;;;;;4205490;28;20040;-61
2021/05/06 02:15:08;;;;;;;2.93;2.10;;;9.40;99.90;;;;;;4205495;28;20024;-59
2021/05/06 02:17:09;;;;;;;4.00;2.08;;;9.40;99.90;;;;;;4205598;28;20032;-66
2021/05/06 02:19:10;;;;;;;2.33;1.93;;;9.40;99.90;;;;;;4209111;28;20040;-59
2021/05/06 02:21:16;;;;;;;6.67;2.50;;;9.40;99.90;;;;;;4207905;28;20027;-62
2021/05/06 02:23:17;;;;;;;7.40;2.60;;;9.40;99.90;;;;;;4208833;28;20069;-60
2021/05/06 02:25:20;;;;;;;3.30;2.13;;;9.30;99.90;;;;;;4208128;28;20066;-60
2021/05/06 02:27:21;;;;;;;2.93;2.27;;;9.40;99.90;;;;;;4209049;28;20036;-60
2021/05/06 02:29:23;;;;;;;2.50;1.63;;;9.30;99.90;;;;;;4208116;28;20112;-60
2021/05/06 02:31:27;;;;;;;2.00;1.63;;;9.30;99.90;;;;;;4203992;28;20044;-60
2021/05/06 02:33:29;;;;;;;1.70;1.20;;;9.30;99.90;;;;;;4208259;28;20449;-59
2021/05/06 02:35:30;;;;;;;2.47;0.90;;;9.30;99.90;;;;;;4208483;28;20024;-60
2021/05/06 02:37:31;;;;;;;2.03;0.83;;;9.30;99.90;;;;;;4207982;28;20117;-61
2021/05/06 02:39:32;;;;;;;1.20;0.70;;;9.30;99.90;;;;;;4209303;28;20082;-61
2021/05/06 02:41:34;;;;;;;1.00;0.70;;;9.30;99.90;;;;;;4208558;28;20097;-59
2021/05/06 02:43:35;;;;;;;0.73;0.50;;;9.30;99.90;;;;;;4208024;28;20077;-59
2021/05/06 02:45:36;;;;;;;0.77;0.60;;;9.20;99.90;;;;;;4208477;28;20028;-61
2021/05/06 02:47:37;;;;;;;1.73;0.70;;;9.20;99.90;;;;;;4207754;28;20132;-60
2021/05/06 02:49:43;;;;;;;2.10;0.70;;;9.20;99.90;;;;;;4208321;28;20105;-60
2021/05/06 02:51:49;;;;;;;2.10;0.60;;;9.10;99.90;;;;;;4207615;28;20020;-65
2021/05/06 02:53:53;;;;;;;1.13;0.60;;;9.10;99.90;;;;;;4194762;28;20089;-60
2021/05/06 02:58:36;;;;;;;0.83;0.77;;;9.10;99.90;;;;;;4208392;28;20453;-59
2021/05/06 03:04:47;;;;;;;0.70;0.57;;;9.00;99.90;;;;;;4207631;28;20024;-57
2021/05/06 03:07:08;;;;;;;2.77;0.50;;;9.00;99.90;;;;;;4208148;28;20074;-60
2021/05/06 03:09:40;;;;;;;1.43;0.40;;;9.00;99.90;;;;;;4191241;28;20435;-59
2021/05/06 03:12:21;;;;;;;1.80;0.70;;;9.10;99.90;;;;;;4191433;28;20097;-60
2021/05/06 03:22:58;;;;;;;1.17;0.70;;;9.70;99.90;;;;;;4208091;28;20048;-60
2021/05/06 03:25:02;;;;;;;0.97;0.57;;;9.60;99.90;;;;;;4207279;28;20048;-59
2021/05/06 03:27:05;;;;;;;1.53;0.50;;;9.60;99.90;;;;;;4207415;28;20116;-61
2021/05/06 03:29:11;;;;;;;1.80;0.73;;;9.50;99.90;;;;;;4207313;28;20074;-60
2021/05/06 03:43:19;;;;;;;1.37;0.60;;;11.80;99.90;;;;;;4207164;28;20036;-59
2021/05/06 03:49:56;;;;;;;1.37;0.70;;;13.50;99.90;;;;;;4207628;28;20096;-60
2021/05/06 04:18:24;;;;;;;2.70;0.70;;;18.10;91.30;;;;;;4206179;28;20048;-60
2021/05/06 04:25:36;;;;;;;8.52;1.00;;;19.20;84.60;;;;;;4206326;28;20032;-59
2021/05/06 04:36:17;;;;;;;8.02;0.90;;;20.20;73.60;;;;;;4205412;28;20032;-62
2021/05/06 04:38:21;;;;;;;4.32;0.85;;;19.50;74.30;;;;;;4206391;28;20016;-60
2021/05/06 04:56:38;;;;;;;3.60;1.30;;;15.50;91.60;;;;;;4205539;28;20024;-63
2021/05/06 05:03:22;;;;;;;4.30;1.40;;;14.70;93.80;;;;;;4205810;28;20036;-59
2021/05/06 05:05:23;;;;;;;2.35;0.75;;;14.40;94.70;;;;;;4196947;28;20090;-60
2021/05/06 05:07:33;;;;;;;3.03;0.85;;;14.20;94.90;;;;;;4206370;28;20036;-60
2021/05/06 05:11:46;;;;;;;10.20;0.83;;;13.80;96.20;;;;;;4205005;28;20073;-60
2021/05/06 05:20:51;;;;;;;7.70;1.77;;;13.70;97.50;;;;;;4204627;28;20082;-61
2021/05/06 05:25:08;;;;;;;1.90;0.70;;;13.20;98.00;;;;;;4200056;28;20429;-65
2021/05/06 05:27:09;;;;;;;5.47;0.70;;;13.10;97.60;;;;;;4203248;28;20061;-67
2021/05/06 05:29:10;;;;;;;2.63;0.70;;;12.80;98.20;;;;;;4197289;28;20641;-68
2021/05/06 05:31:11;;;;;;;5.97;0.70;;;12.70;98.80;;;;;;4188428;28;20028;-70
2021/05/06 05:33:15;;;;;;;5.70;0.70;;;12.60;99.10;;;;;;4190262;28;20036;-67
2021/05/06 05:35:28;;;;;;;3.63;0.90;;;12.70;99.50;;;;;;4188923;28;20832;-65
2021/05/06 05:37:38;;;;;;;1.80;0.67;;;12.60;99.60;;;;;;4189849;28;20082;-65
2021/05/06 05:46:49;;;;;;;5.78;0.60;;;12.50;99.90;;;;;;4191966;28;20901;-62
2021/05/06 05:55:43;;;;;;;1.93;0.50;;;12.00;99.90;;;;;;4205696;28;20024;-61
2021/05/06 05:57:47;;;;;;;1.87;0.70;;;12.00;99.90;;;;;;4203983;28;20036;-61
2021/05/06 05:59:48;;;;;;;4.17;0.50;;;12.00;99.90;;;;;;4206041;28;20039;-61
2021/05/06 06:01:49;;;;;;;2.60;0.53;;;11.90;99.90;;;;;;4204832;28;20440;-61
2021/05/06 06:03:51;;;;;;;2.63;0.50;;;11.90;99.90;;;;;;4204207;28;20030;-61
2021/05/06 06:05:53;;;;;;;0.80;0.30;;;11.90;99.90;;;;;;4204521;28;20044;-60
2021/05/06 06:07:54;;;;;;;1.33;0.60;;;11.90;99.90;;;;;;4205203;28;20039;-62
2021/05/06 06:09:56;;;;;;;0.83;0.50;;;11.90;99.90;;;;;;4204381;28;20039;-61
2021/05/06 06:11:58;;;;;;;1.07;0.50;;;11.80;99.90;;;;;;4204515;28;20109;-61
2021/05/06 06:14:05;;;;;;;1.83;0.70;;;11.80;99.90;;;;;;4204659;28;20024;-67
2021/05/06 06:18:19;;;;;;;3.23;0.30;;;11.90;99.90;;;;;;4205254;28;20036;-61
2021/05/06 06:20:21;;;;;;;2.83;0.43;;;12.00;99.90;;;;;;4205990;28;20066;-61
2021/05/06 06:22:22;;;;;;;0.33;0.30;;;12.00;99.90;;;;;;4205278;28;20078;-59
2021/05/06 06:24:23;;;;;;;1.57;0.37;;;12.00;99.90;;;;;;4205520;28;20073;-63
2021/05/06 06:26:25;;;;;;;2.30;0.40;;;11.90;99.90;;;;;;4205369;28;20105;-63
2021/05/06 06:28:33;;;;;;;2.57;0.70;;;12.00;99.90;;;;;;4204815;28;20040;-59
2021/05/06 06:30:36;;;;;;;3.07;0.73;;;12.00;99.90;;;;;;4204709;28;20501;-59
2021/05/06 06:32:37;;;;;;;2.30;0.53;;;12.20;99.90;;;;;;4204567;28;20089;-59
2021/05/06 06:34:38;;;;;;;3.33;0.70;;;12.40;99.90;;;;;;4205510;28;20032;-60
2021/05/06 06:36:43;;;;;;;3.27;0.40;;;12.60;99.90;;;;;;4204295;28;20549;-65
2021/05/06 06:38:45;;;;;;;1.03;0.50;;;12.80;99.70;;;;;;4207302;28;20032;-66
2021/05/06 06:40:46;;;;;;;1.27;0.50;;;12.90;99.00;;;;;;4204298;28;20032;-60
2021/05/06 06:42:47;;;;;;;2.53;0.40;;;12.90;98.50;;;;;;4205652;28;20063;-60
2021/05/06 06:44:49;;;;;;;0.80;0.47;;;13.10;98.20;;;;;;4204676;28;20121;-57
2021/05/06 06:47:00;;;;;;;3.27;0.53;;;13.30;98.00;;;;;;4205389;28;20537;-64
2021/05/06 06:49:02;;;;;;;7.67;1.00;;;13.50;97.20;;;;;;4204878;28;20048;-60
2021/05/06 06:51:04;;;;;;;2.10;0.30;;;13.60;96.40;;;;;;4204881;28;20077;-60
2021/05/06 06:53:05;;;;;;;3.37;0.40;;;13.60;95.90;;;;;;4204720;28;20097;-62
2021/05/06 06:55:07;;;;;;;1.90;0.57;;;13.50;95.20;;;;;;4205397;28;20032;-60
2021/05/06 06:57:08;;;;;;;2.20;0.70;;;13.40;95.00;;;;;;4203753;28;20024;-60
2021/05/06 06:59:10;;;;;;;1.43;0.40;;;13.40;94.80;;;;;;4204188;28;20044;-59
2021/05/06 07:01:11;;;;;;;1.77;0.50;;;13.40;94.60;;;;;;4204325;28;20125;-61
2021/05/06 07:03:13;;;;;;;2.37;0.40;;;13.30;94.10;;;;;;4205466;28;20069;-59
2021/05/06 07:05:14;;;;;;;2.53;0.50;;;13.40;93.90;;;;;;4207325;28;20619;-58
2021/05/06 07:07:17;;;;;;;2.00;0.60;;;13.40;93.30;;;;;;4207179;28;20036;-61
2021/05/06 07:09:19;;;;;;;1.43;0.47;;;13.40;93.20;;;;;;4208319;28;20448;-58
2021/05/06 07:11:20;;;;;;;1.63;0.40;;;13.60;92.70;;;;;;4206545;28;20940;-61
2021/05/06 07:13:22;;;;;;;1.53;0.60;;;13.70;92.40;;;;;;4207666;28;20069;-58
2021/05/06 07:15:23;;;;;;;2.90;0.70;;;13.80;91.60;;;;;;4206434;28;20321;-58
2021/05/06 07:17:24;;;;;;;1.80;0.30;;;13.80;91.20;;;;;;4207849;28;20024;-59
2021/05/06 07:19:25;;;;;;;3.60;0.93;;;13.80;90.40;;;;;;4205882;28;20060;-58
2021/05/06 07:21:26;;;;;;;0.90;0.40;;;13.80;90.10;;;;;;4207200;28;20067;-60
2021/05/06 07:23:28;;;;;;;1.73;0.50;;;13.90;88.70;;;;;;4206327;28;20497;-60
2021/05/06 07:25:29;;;;;;;4.03;0.70;;;14.00;87.40;;;;;;4207408;28;20749;-60
2021/05/06 07:27:30;;;;;;;2.77;0.80;;;14.00;86.20;;;;;;4206803;28;20043;-59
2021/05/06 07:29:32;;;;;;;1.23;0.40;;;14.30;85.40;;;;;;4207053;28;20085;-57
2021/05/06 07:31:33;;;;;;;2.23;0.57;;;14.60;82.40;;;;;;4206560;28;20033;-59
2021/05/06 07:33:35;;;;;;;3.37;1.00;;;15.10;80.00;;;;;;4207196;28;20089;-57
2021/05/06 07:35:36;;;;;;;1.20;1.07;;;15.50;78.30;;;;;;4206546;28;20082;-65
2021/05/06 07:37:38;;;;;;;2.67;0.40;;;15.70;74.70;;;;;;4206120;28;20109;-59
2021/05/06 07:39:39;;;;;;;6.23;1.37;;;16.10;73.60;;;;;;4207212;28;20052;-60
2021/05/06 07:41:40;;;;;;;0.80;0.60;;;16.20;71.80;;;;;;4206614;28;20052;-56
2021/05/06 07:43:45;;;;;;;2.53;0.40;;;16.60;71.50;;;;;;4207708;28;20471;-60
2021/05/06 07:45:46;;;;;;;3.50;1.30;;;16.70;70.10;;;;;;4205055;28;20132;-60
2021/05/06 07:47:48;;;;;;;1.03;0.40;;;16.80;69.40;;;;;;4207392;28;20024;-59
2021/05/06 07:49:49;;;;;;;0.77;0.33;;;16.60;68.20;;;;;;4205754;28;20032;-61
2021/05/06 07:51:50;;;;;;;1.23;0.40;;;16.60;67.50;;;;;;4207098;28;20121;-60
2021/05/06 07:53:53;;;;;;;2.25;0.40;;;16.60;67.50;;;;;;4206163;28;20073;-60
2021/05/06 07:55:55;;;;;;;1.63;0.45;;;16.80;67.30;;;;;;4204620;28;20032;-61
2021/05/06 07:57:57;;;;;;;3.50;0.75;;;17.00;66.50;;;;;;4206553;28;20040;-61
2021/05/06 07:59:58;;;;;;;1.17;0.40;;;17.30;66.10;;;;;;4206628;28;20368;-64
2021/05/06 08:02:00;;;;;;;0.55;0.47;;;17.50;64.20;;;;;;4190639;28;20137;-61
2021/05/06 08:04:02;;;;;;;3.35;0.70;;;17.30;63.50;;;;;;4190470;28;20447;-68
2021/05/06 08:06:05;;;;;;;1.92;0.28;;;17.10;64.00;;;;;;4189910;28;20040;-63
2021/05/06 08:08:06;;;;;;;1.02;0.40;;;16.90;63.00;;;;;;4190345;28;20442;-65
2021/05/06 08:10:12;;;;;;;1.02;0.55;;;16.80;63.40;;;;;;4206356;28;20401;-63
2021/05/06 08:12:15;;;;;;;2.30;0.40;;;16.80;62.80;;;;;;4206073;28;20539;-60
2021/05/06 08:14:18;;;;;;;5.00;0.50;;;17.00;63.60;;;;;;4206987;28;20460;-60
2021/05/06 08:16:19;;;;;;;3.90;0.88;;;17.00;63.50;;;;;;4206651;28;20039;-60
2021/05/06 08:18:20;;;;;;;1.92;1.10;;;16.50;63.60;;;;;;4207373;28;20032;-60
2021/05/06 08:20:21;;;;;;;0.88;0.60;;;16.60;64.00;;;;;;4205971;28;20474;-61
2021/05/06 08:22:22;;;;;;;2.33;0.40;;;16.70;63.80;;;;;;4206735;28;20488;-59
2021/05/06 08:24:23;;;;;;;3.47;0.57;;;17.00;63.80;;;;;;4205483;28;20046;-61
2021/05/06 08:26:27;;;;;;;1.38;0.65;;;16.90;60.60;;;;;;4207149;28;20082;-60
2021/05/06 08:28:28;;;;;;;1.50;0.40;;;16.90;60.70;;;;;;4205988;28;20426;-59
2021/05/06 08:30:29;;;;;;;2.35;0.28;;;17.20;60.40;;;;;;4206960;28;20077;-60
2021/05/06 08:32:30;;;;;;;0.80;0.40;;;17.30;59.40;;;;;;4205372;28;20085;-60
2021/05/06 08:34:31;;;;;;;0.55;0.20;;;17.50;59.50;;;;;;4206799;28;20422;-61
2021/05/06 08:36:33;;;;;;;1.77;0.40;;;17.60;58.20;;;;;;4206387;28;20081;-61
2021/05/06 08:38:35;;;;;;;4.68;0.35;;;17.60;57.60;;;;;;4206389;28;20058;-60
2021/05/06 08:40:37;;;;;;;2.35;0.55;;;17.30;57.70;;;;;;4207027;28;20020;-60
2021/05/06 08:42:39;;;;;;;1.08;0.30;;;17.40;57.60;;;;;;4206406;28;20032;-60
2021/05/06 08:44:41;;;;;;;1.42;0.35;;;17.30;57.00;;;;;;4205991;28;20061;-61
2021/05/06 08:49:09;;;;;;;4.43;0.75;;;17.00;56.30;;;;;;4206252;28;20036;-60
2021/05/06 08:51:11;;;;;;;1.60;0.55;;;16.90;55.90;;;;;;4206078;28;20024;-62
2021/05/06 08:53:13;;;;;;;1.67;0.73;;;16.70;56.40;;;;;;4205585;28;20545;-61
2021/05/06 08:55:16;;;;;;;1.45;0.60;;;16.80;56.70;;;;;;4205262;28;20040;-61
2021/05/06 08:57:20;;;;;;;2.65;0.90;;;16.70;56.40;;;;;;4206599;28;20446;-67
2021/05/06 08:59:21;;;;;;;5.57;1.27;;;16.60;56.10;;;;;;4204120;28;20048;-67
2021/05/06 09:01:23;;;;;;;12.85;1.83;;;16.50;56.50;;;;;;4206473;28;20092;-67
2021/05/06 09:03:24;;;;;;;1.67;0.57;;;16.20;56.00;;;;;;4205170;28;20041;-70
2021/05/06 09:05:25;;;;;;;2.97;0.60;;;16.00;55.80;;;;;;4205819;28;20052;-67
2021/05/06 09:07:31;;;;;;;5.30;1.30;;;15.80;55.70;;;;;;4205250;28;20507;-68
2021/05/06 09:09:33;;;;;;;1.67;0.80;;;15.70;56.60;;;;;;4206172;28;20085;-68
2021/05/06 09:11:37;;;;;;;6.28;1.83;;;15.80;57.00;;;;;;4205047;28;20483;-60
2021/05/06 09:13:39;;;;;;;2.70;0.60;;;16.00;57.70;;;;;;4205192;28;20039;-60
2021/05/06 09:15:47;;;;;;;3.05;0.75;;;16.30;57.40;;;;;;4204977;28;20762;-61
2021/05/06 09:17:48;;;;;;;1.50;1.05;;;16.10;56.30;;;;;;4206159;28;20098;-61
2021/05/06 09:20:07;;;;;;;3.35;1.05;;;16.20;57.30;;;;;;4205944;28;20097;-60
2021/05/06 09:22:08;;;;;;;1.23;0.55;;;16.10;56.70;;;;;;4205597;28;20095;-61
2021/05/06 09:24:26;;;;;;;4.10;0.55;;;16.10;57.50;;;;;;4205062;28;20326;-61
2021/05/06 09:26:28;;;;;;;2.00;0.57;;;16.20;57.60;;;;;;4204725;28;20113;-61
2021/05/06 09:28:31;;;;;;;1.35;0.73;;;16.20;57.10;;;;;;4203432;28;20102;-60
2021/05/06 09:30:46;;;;;;;2.72;0.60;;;15.80;57.10;;;;;;4205501;28;20031;-62
2021/05/06 09:32:47;;;;;;;2.55;0.52;;;15.40;57.60;;;;;;4197747;28;20130;-61
2021/05/06 09:34:54;;;;;;;3.85;0.70;;;15.40;58.00;;;;;;4205196;28;20089;-60
2021/05/06 09:36:58;;;;;;;5.07;1.03;;;15.20;57.60;;;;;;4205482;28;20507;-61
2021/05/06 09:39:00;;;;;;;4.70;1.42;;;15.30;58.40;;;;;;4203725;28;20105;-61
2021/05/06 09:41:04;;;;;;;6.53;1.40;;;15.20;58.10;;;;;;4205791;28;20097;-62
2021/05/06 09:43:06;;;;;;;4.13;1.87;;;15.30;59.10;;;;;;4205476;28;20028;-61
2021/05/06 09:45:08;;;;;;;6.90;0.73;;;15.50;59.60;;;;;;4205407;28;20060;-61
2021/05/06 09:47:15;;;;;;;6.50;1.93;;;15.70;59.00;;;;;;4204294;28;20471;-63
2021/05/06 09:49:18;;;;;;;2.07;0.70;;;15.90;58.20;;;;;;4204531;28;20977;-61
2021/05/06 09:51:28;;;;;;;3.67;1.33;;;15.80;57.90;;;;;;4203304;28;20024;-61
2021/05/06 09:53:32;;;;;;;1.73;0.57;;;15.80;58.10;;;;;;4199308;28;20028;-61
2021/05/06 09:55:34;;;;;;;3.77;1.27;;;15.80;58.20;;;;;;4200315;28;20044;-61
2021/05/06 09:57:36;;;;;;;4.95;0.70;;;15.90;58.50;;;;;;4205561;28;20108;-61
2021/05/06 09:59:39;;;;;;;2.47;0.40;;;16.00;57.70;;;;;;4204825;28;20031;-62
2021/05/06 10:01:41;;;;;;;1.75;0.60;;;15.80;57.70;;;;;;4206132;28;20028;-61
2021/05/06 10:03:44;;;;;;;1.70;0.50;;;15.80;57.60;;;;;;4205142;28;20036;-62
2021/05/06 10:05:48;;;;;;;3.10;0.97;;;15.60;57.70;;;;;;4205733;28;20499;-63
2021/05/06 10:07:55;;;;;;;3.83;0.73;;;15.70;58.10;;;;;;4204651;28;20053;-67
2021/05/06 10:10:08;;;;;;;1.00;0.50;;;16.00;58.40;;;;;;4205459;28;20089;-61
2021/05/06 10:12:09;;;;;;;2.78;1.10;;;16.30;58.30;;;;;;4204697;28;20212;-64
2021/05/06 10:14:10;;;;;;;10.45;1.13;;;16.60;58.10;;;;;;4204948;28;20112;-67
2021/05/06 10:16:13;;;;;;;4.32;1.35;;;16.70;57.70;;;;;;4204941;28;20101;-65
2021/05/06 10:18:17;;;;;;;4.20;1.20;;;16.80;57.30;;;;;;4205027;28;20085;-68
2021/05/06 10:20:20;;;;;;;5.22;0.80;;;16.70;57.20;;;;;;4205279;28;20476;-66
2021/05/06 10:22:23;;;;;;;1.30;0.40;;;16.80;56.60;;;;;;4205205;28;20040;-62
2021/05/06 10:24:27;;;;;;;1.40;0.52;;;16.90;56.60;;;;;;4204117;28;20085;-74
2021/05/06 10:26:28;;;;;;;1.30;0.85;;;17.10;56.50;;;;;;4204404;28;20069;-65
2021/05/06 10:28:34;;;;;;;2.40;1.20;;;17.30;56.50;;;;;;4205674;28;20051;-68
2021/05/06 10:30:35;;;;;;;4.55;0.98;;;17.50;56.10;;;;;;4204965;28;20032;-68
2021/05/06 10:32:36;;;;;;;0.77;0.40;;;17.80;56.10;;;;;;4205253;28;20028;-66
2021/05/06 10:34:38;;;;;;;0.60;0.40;;;17.90;55.10;;;;;;4204885;28;20028;-72
2021/05/06 10:36:40;;;;;;;1.70;0.50;;;18.10;54.60;;;;;;4205688;28;20028;-71
2021/05/06 10:38:43;;;;;;;2.38;0.50;;;18.40;53.80;;;;;;4204396;28;20035;-65
2021/05/06 10:40:44;;;;;;;2.03;1.15;;;18.50;52.90;;;;;;4208863;28;20056;-68
2021/05/06 10:42:46;;;;;;;2.60;0.40;;;18.50;53.10;;;;;;4207619;28;20040;-61
2021/05/06 10:44:47;;;;;;;0.77;0.30;;;18.60;53.10;;;;;;4208999;28;20116;-60
2021/05/06 10:47:02;;;;;;;1.48;0.50;;;18.50;52.80;;;;;;4208155;28;20040;-61
2021/05/06 10:49:03;;;;;;;0.98;0.63;;;18.50;52.80;;;;;;4208589;28;20069;-61
2021/05/06 10:51:27;;;;;;;4.47;0.85;;;18.40;52.50;;;;;;4207617;28;20560;-62
2021/05/06 10:53:29;;;;;;;1.80;0.30;;;18.30;50.40;;;;;;4208450;28;20034;-63
2021/05/06 10:55:42;;;;;;;0.40;0.40;;;18.30;52.40;;;;;;4207075;28;20081;-61
2021/05/06 10:57:43;;;;;;;1.23;0.60;;;18.20;51.90;;;;;;4208057;28;20090;-71
2021/05/06 10:59:46;;;;;;;2.50;0.82;;;18.20;53.20;;;;;;4206747;28;20607;-69
2021/05/06 11:01:47;;;;;;;6.45;1.15;;;18.10;53.60;;;;;;4208070;28;20040;-71
2021/05/06 11:04:03;;;;;;;2.20;0.77;;;17.90;53.80;;;;;;4207558;28;20029;-70
2021/05/06 11:06:05;;;;;;;1.98;1.08;;;17.80;54.50;;;;;;4208241;28;20044;-73
2021/05/06 11:08:06;;;;;;;4.47;0.82;;;17.70;53.80;;;;;;4207734;28;20032;-67
2021/05/06 11:10:08;;;;;;;2.83;1.27;;;17.80;54.20;;;;;;4207802;28;20020;-73
2021/05/06 11:12:15;;;;;;;0.80;0.50;;;17.80;54.20;;;;;;4206793;28;20040;-61
2021/05/06 11:14:17;;;;;;;3.95;1.15;;;17.70;54.20;;;;;;4207764;28;20031;-62
2021/05/06 11:16:18;;;;;;;5.40;1.38;;;17.60;54.10;;;;;;4207032;28;20052;-62
2021/05/06 11:18:39;;;;;;;2.10;0.82;;;17.40;54.50;;;;;;4207622;28;20040;-61
2021/05/06 11:20:41;;;;;;;;;;;16.90;53.40;;;;;;4208341;28;20036;-61
2021/05/06 11:22:43;;;;;;;4.72;1.73;;;16.60;54.70;;;;;;4207482;28;20548;-69
2021/05/06 11:24:44;;;;;;;1.25;0.80;;;16.60;55.50;;;;;;4207454;28;20097;-60
2021/05/06 11:27:02;;;;;;;1.45;0.82;;;16.60;55.30;;;;;;4207120;28;20089;-61
2021/05/06 11:29:03;;;;;;;2.15;0.95;;;16.60;54.60;;;;;;4207469;28;20020;-60
2021/05/06 11:31:04;;;;;;;1.63;1.08;;;16.60;55.20;;;;;;4207200;28;20085;-63
2021/05/06 11:33:21;;;;;;;4.32;1.30;;;16.60;54.60;;;;;;4207991;28;20356;-64
2021/05/06 11:35:22;;;;;;;0.90;0.55;;;16.70;53.40;;;;;;4207069;28;20441;-61
2021/05/06 11:37:27;;;;;;;5.22;1.90;;;16.40;53.60;;;;;;4207093;28;20461;-61
2021/05/06 11:39:28;;;;;;;2.25;1.00;;;16.40;53.90;;;;;;4205729;28;20145;-61
2021/05/06 11:41:33;;;;;;;1.58;0.60;;;16.40;54.10;;;;;;4208149;28;20049;-61
2021/05/06 11:43:36;;;;;;;5.32;0.95;;;16.50;54.10;;;;;;4206493;28;20533;-61
2021/05/06 11:45:38;;;;;;;6.45;2.67;;;16.60;54.20;;;;;;4206755;28;20032;-60
2021/05/06 11:47:40;;;;;;;1.98;1.30;;;16.70;54.10;;;;;;4206626;28;20031;-61
2021/05/06 11:49:41;;;;;;;3.20;0.70;;;16.70;54.00;;;;;;4206847;28;20036;-62
2021/05/06 11:51:47;;;;;;;5.00;0.90;;;16.80;54.20;;;;;;4206821;28;20040;-62
2021/05/06 11:54:12;;;;;;;0.93;0.70;;;16.80;53.80;;;;;;4207150;28;20036;-62
2021/05/06 11:56:14;;;;;;;0.60;0.50;;;16.90;53.40;;;;;;4205267;28;20040;-61
2021/05/06 11:58:28;;;;;;;1.80;0.60;;;16.90;53.80;;;;;;4207418;28;20085;-61
2021/05/06 12:00:31;;;;;;;4.38;0.60;;;17.00;53.70;;;;;;4207145;28;20105;-62
2021/05/06 12:02:32;;;;;;;6.43;2.20;;;17.00;53.60;;;;;;4207054;28;20035;-63
2021/05/06 12:04:35;;;;;;;9.60;1.95;;;17.00;53.40;;;;;;4206637;28;20103;-63
2021/05/06 12:06:36;;;;;;;3.30;1.10;;;16.90;53.30;;;;;;4206909;28;20180;-63
2021/05/06 12:08:46;;;;;;;1.73;0.65;;;16.80;53.30;;;;;;4206645;28;20636;-60
2021/05/06 12:10:47;;;;;;;2.25;0.70;;;16.70;53.20;;;;;;4207285;28;20097;-62
2021/05/06 12:13:00;;;;;;;4.00;0.63;;;16.70;53.40;;;;;;4205283;28;20681;-64
2021/05/06 12:15:02;;;;;;;4.00;0.70;;;16.60;52.30;;;;;;4189845;28;20036;-61
2021/05/06 12:17:04;;;;;;;8.10;1.75;;;16.50;53.10;;;;;;4189348;28;20078;-61
2021/05/06 12:19:07;;;;;;;3.05;0.90;;;16.60;53.30;;;;;;4189872;28;20093;-61
2021/05/06 12:21:08;;;;;;;3.22;0.63;;;16.60;53.10;;;;;;4196718;28;20563;-61
2021/05/06 12:23:09;;;;;;;4.30;0.77;;;16.50;52.90;;;;;;4205925;28;20081;-61
2021/05/06 12:25:10;;;;;;;1.00;0.47;;;16.40;52.90;;;;;;4206703;28;20027;-61
2021/05/06 12:27:24;;;;;;;1.30;0.68;;;16.40;53.40;;;;;;4206652;28;20027;-61
2021/05/06 12:29:29;;;;;;;3.85;0.80;;;16.40;53.30;;;;;;4206697;28;20085;-63
2021/05/06 12:31:43;;;;;;;9.25;1.60;;;16.30;53.70;;;;;;4206272;28;20060;-63
2021/05/06 12:33:44;;;;;;;3.92;1.20;;;16.40;53.60;;;;;;4189995;28;20430;-61
2021/05/06 12:35:52;;;;;;;6.22;0.85;;;16.50;53.70;;;;;;4189811;28;20125;-60
2021/05/06 12:37:54;;;;;;;7.60;0.90;;;16.50;53.10;;;;;;4195155;28;20040;-60
2021/05/06 12:39:56;;;;;;;3.85;0.50;;;16.50;53.80;;;;;;4206744;28;20177;-60
2021/05/06 12:42:00;;;;;;;0.73;0.70;;;16.60;53.50;;;;;;4207180;28;20052;-62
2021/05/06 12:44:02;;;;;;;0.25;0.20;;;16.60;52.60;;;;;;4206105;28;20078;-68
2021/05/06 12:46:03;;;;;;;4.10;0.63;;;16.60;52.60;;;;;;4205600;28;20622;-72
2021/05/06 12:48:05;;;;;;;4.97;0.60;;;16.50;52.40;;;;;;4205869;28;20024;-73
2021/05/06 12:50:15;;;;;;;7.20;0.55;;;16.40;52.50;;;;;;4206487;28;20053;-73
2021/05/06 12:52:32;;;;;;;7.40;1.90;;;16.40;52.50;;;;;;4205199;28;20032;-71
2021/05/06 12:54:35;;;;;;;4.85;0.40;;;16.40;53.50;;;;;;4207144;28;20473;-65
2021/05/06 12:56:41;;;;;;;2.05;0.45;;;16.40;52.50;;;;;;4205700;28;20040;-70
2021/05/06 12:58:42;;;;;;;8.25;1.88;;;16.30;52.40;;;;;;4206333;28;20032;-74
2021/05/06 13:00:57;;;;;;;1.17;0.38;;;16.50;52.50;;;;;;4204460;28;20123;-69
2021/05/06 13:03:06;;;;;;;6.40;0.40;;;16.50;52.20;;;;;;4205803;28;20028;-72
2021/05/06 13:05:07;;;;;;;15.38;1.52;;;16.60;52.30;;;;;;4205330;28;20032;-72
2021/05/06 13:07:09;;;;;;;8.95;1.30;;;16.40;52.30;;;;;;4206083;28;20085;-66
2021/05/06 13:09:17;;;;;;;2.97;0.60;;;16.30;52.50;;;;;;4205803;28;20541;-75
2021/05/06 13:11:23;;;;;;;2.35;0.90;;;16.30;52.40;;;;;;4206522;28;20032;-73
2021/05/06 13:13:47;;;;;;;1.45;0.68;;;16.20;52.10;;;;;;4205274;28;20024;-60
2021/05/06 13:15:53;;;;;;;3.25;0.88;;;16.00;52.00;;;;;;4206250;28;20345;-64
2021/05/06 13:17:57;;;;;;;0.60;0.30;;;16.00;52.60;;;;;;4204700;28;20037;-62
2021/05/06 13:20:13;;;;;;;3.42;0.60;;;15.90;52.40;;;;;;4206196;28;20036;-62
2021/05/06 13:22:14;;;;;;;5.32;0.65;;;15.90;52.60;;;;;;4205696;28;20085;-61
2021/05/06 13:24:16;;;;;;;3.58;1.00;;;15.90;52.70;;;;;;4206045;28;20112;-63
2021/05/06 13:26:30;;;;;;;8.35;1.05;;;16.00;52.70;;;;;;4205233;28;20042;-64
2021/05/06 13:28:32;;;;;;;2.75;1.05;;;16.00;51.90;;;;;;4206182;28;20039;-71
2021/05/06 13:30:34;;;;;;;1.70;0.60;;;16.00;52.80;;;;;;4205876;28;20081;-71
2021/05/06 13:32:37;;;;;;;10.25;1.65;;;16.00;52.20;;;;;;4205489;28;20028;-68
2021/05/06 13:34:52;;;;;;;10.57;1.35;;;16.10;51.80;;;;;;4205377;28;20161;-62
2021/05/06 13:37:03;;;;;;;12.02;3.85;;;16.00;51.70;;;;;;4203487;28;20044;-65
2021/05/06 13:39:15;;;;;;;2.85;0.73;;;16.00;51.60;;;;;;4205104;28;20036;-66
2021/05/06 13:41:18;;;;;;;9.75;0.80;;;16.10;52.30;;;;;;4205112;28;20043;-70
2021/05/06 13:43:19;;;;;;;1.98;0.50;;;16.10;51.80;;;;;;4204773;28;20081;-62
2021/05/06 13:45:20;;;;;;;18.27;1.83;;;16.10;51.80;;;;;;4204688;28;20053;-63
2021/05/06 13:47:25;;;;;;;16.30;1.80;;;16.00;51.70;;;;;;4206258;28;20058;-61
2021/05/06 13:49:29;;;;;;;22.02;1.70;;;15.90;51.40;;;;;;4204340;28;20456;-61
2021/05/06 13:51:30;;;;;;;3.92;0.75;;;15.80;51.60;;;;;;4205702;28;20024;-63
2021/05/06 13:53:32;;;;;;;16.63;2.58;;;15.60;51.70;;;;;;4205313;28;20035;-63
2021/05/06 13:55:33;;;;;;;27.27;2.38;;;15.60;52.00;;;;;;4205776;28;20395;-62
2021/05/06 13:57:34;;;;;;;16.10;1.33;;;15.60;52.90;;;;;;4204641;28;20031;-61
2021/05/06 13:59:35;;;;;;;4.03;0.50;;;15.60;52.70;;;;;;4205256;28;20483;-62
2021/05/06 14:01:36;;;;;;;10.20;1.15;;;15.60;52.30;;;;;;4205425;28;20078;-62
2021/05/06 14:03:37;;;;;;;7.43;1.10;;;15.50;52.70;;;;;;4205871;28;20381;-63
2021/05/06 14:05:38;;;;;;;6.38;0.60;;;15.50;53.10;;;;;;4204965;28;20055;-62
2021/05/06 14:07:41;;;;;;;5.28;0.50;;;15.50;53.30;;;;;;4205543;28;20081;-61